aviador You're here:

CYMM Decoded Metar

FORT MCMURRAY in AB, CANADA
Report Time2017-11-25 07:13:00
UTC Time2017-11-25 07:41:38
Flight Rules vfr VFR
Wind110° at 10 kt
W.Decomp.*RWY 07: 9.2 kt HW 3.9 kt RCW
W.Rank110° ranks 1
Current wind is above 110° avg. (6.8)
Visibility9999 m
Phenomena:N/A
Clouds:Overcast 055 Hf
Expected CloudBase > 1,200 ft AGL from Temp-Dew spread
Ceiling5,500 ft
Temp-12°C (ISA -25)
Dew Point-15°C (79% RH)
AAT-19.0°C
QNH1006 hPa
Density Alt-1,594 ft
Elevation1,211 ft
Report Wrong Elevation
Raw Report
SPECI CYMM 250713Z AUTO 11010KT 9SM OVC055 M12/M15 A2972 RMK SLP097=

Extra information for CYMM:More info

Metar Taf Metar & Taf Last 4 Metars F.Rules Stats Wind Profile Meteogram Temp Stats Airport Information Weather charts Add Link Nearby VenuesMetar ALERT Operation Metar Decoded Social comments